Terminal Aerodrome Forecast
Issued by NWS Cleveland, OH

Home | Current Version | Previous Version | Graphics & Text | Print | Product List | Glossary On
Versions: 1 2 3 4 5 6 7 8 9 10 11 12 13 14 15 16 17 18 19 20 21
000
FTUS41 KCLE 220800 AAA
TAFTOL
TAF AMD
KTOL 220830Z 2209/2306 26010KT P6SM SCT015 OVC070
      TEMPO 2209/2210 5SM -SHRA BR BKN015 OVC040
     FM221000 27012KT 5SM BR BKN008
     FM221200 30014G22KT P6SM BKN012 OVC040
     FM221600 30020G28KT P6SM SCT035
     FM230100 32010KT P6SM SCT030=

USA.gov is the U.S. government's official web portal to all federal, state and local government web resources and services.